sensor_id;sensor_type;location;lat;lon;timestamp;P1;durP1;ratioP1;P2;durP2;ratioP2
8993;SDS011;4532;50.886;4.700;2023-05-01T00:01:12;3.22;;;2.25;;
8993;SDS011;4532;50.886;4.700;2023-05-01T00:03:42;3.42;;;2.38;;
8993;SDS011;4532;50.886;4.700;2023-05-01T00:06:14;2.97;;;2.50;;
8993;SDS011;4532;50.886;4.700;2023-05-01T00:08:44;3.42;;;2.28;;
8993;SDS011;4532;50.886;4.700;2023-05-01T00:11:11;3.97;;;2.30;;
8993;SDS011;4532;50.886;4.700;2023-05-01T00:13:38;2.97;;;2.22;;
8993;SDS011;4532;50.886;4.700;2023-05-01T00:16:09;3.50;;;2.55;;
8993;SDS011;4532;50.886;4.700;2023-05-01T00:18:40;2.65;;;2.40;;
8993;SDS011;4532;50.886;4.700;2023-05-01T00:21:08;3.03;;;2.20;;
8993;SDS011;4532;50.886;4.700;2023-05-01T00:23:37;2.42;;;2.10;;
8993;SDS011;4532;50.886;4.700;2023-05-01T00:26:09;2.55;;;2.20;;
8993;SDS011;4532;50.886;4.700;2023-05-01T00:28:38;2.40;;;2.10;;
8993;SDS011;4532;50.886;4.700;2023-05-01T00:31:05;2.25;;;2.05;;
8993;SDS011;4532;50.886;4.700;2023-05-01T00:33:38;3.25;;;2.20;;
8993;SDS011;4532;50.886;4.700;2023-05-01T00:36:06;3.92;;;2.60;;
8993;SDS011;4532;50.886;4.700;2023-05-01T00:38:33;3.25;;;2.20;;
8993;SDS011;4532;50.886;4.700;2023-05-01T00:41:00;3.17;;;2.03;;
8993;SDS011;4532;50.886;4.700;2023-05-01T00:43:27;3.57;;;2.07;;
8993;SDS011;4532;50.886;4.700;2023-05-01T00:46:01;2.35;;;1.95;;
8993;SDS011;4532;50.886;4.700;2023-05-01T00:48:31;4.18;;;2.40;;
8993;SDS011;4532;50.886;4.700;2023-05-01T00:51:00;5.32;;;2.28;;
8993;SDS011;4532;50.886;4.700;2023-05-01T00:53:35;2.15;;;1.95;;
8993;SDS011;4532;50.886;4.700;2023-05-01T00:56:07;2.80;;;2.08;;
8993;SDS011;4532;50.886;4.700;2023-05-01T00:58:40;3.55;;;2.40;;
8993;SDS011;4532;50.886;4.700;2023-05-01T01:01:07;2.95;;;2.10;;
8993;SDS011;4532;50.886;4.700;2023-05-01T01:03:37;3.20;;;2.10;;
8993;SDS011;4532;50.886;4.700;2023-05-01T01:09:08;3.00;;;2.22;;
8993;SDS011;4532;50.886;4.700;2023-05-01T01:14:52;3.53;;;2.33;;
8993;SDS011;4532;50.886;4.700;2023-05-01T01:17:28;2.63;;;2.13;;
8993;SDS011;4532;50.886;4.700;2023-05-01T01:23:00;3.53;;;2.15;;
8993;SDS011;4532;50.886;4.700;2023-05-01T01:29:00;3.80;;;2.28;;
8993;SDS011;4532;50.886;4.700;2023-05-01T01:31:53;4.53;;;2.70;;
8993;SDS011;4532;50.886;4.700;2023-05-01T01:34:46;3.83;;;2.20;;
8993;SDS011;4532;50.886;4.700;2023-05-01T01:37:31;4.40;;;2.63;;
8993;SDS011;4532;50.886;4.700;2023-05-01T01:40:17;5.10;;;2.40;;
8993;SDS011;4532;50.886;4.700;2023-05-01T01:45:21;3.90;;;2.45;;
8993;SDS011;4532;50.886;4.700;2023-05-01T01:47:55;3.53;;;2.90;;
8993;SDS011;4532;50.886;4.700;2023-05-01T01:50:23;3.20;;;2.25;;
8993;SDS011;4532;50.886;4.700;2023-05-01T01:52:54;2.53;;;2.25;;
8993;SDS011;4532;50.886;4.700;2023-05-01T01:55:26;3.00;;;2.33;;
8993;SDS011;4532;50.886;4.700;2023-05-01T01:57:58;3.00;;;2.25;;
8993;SDS011;4532;50.886;4.700;2023-05-01T02:00:30;3.50;;;2.58;;
8993;SDS011;4532;50.886;4.700;2023-05-01T02:03:01;5.30;;;2.75;;
8993;SDS011;4532;50.886;4.700;2023-05-01T02:05:29;3.30;;;2.60;;
8993;SDS011;4532;50.886;4.700;2023-05-01T02:08:00;4.35;;;2.67;;
8993;SDS011;4532;50.886;4.700;2023-05-01T02:10:29;4.05;;;2.67;;
8993;SDS011;4532;50.886;4.700;2023-05-01T02:13:03;3.60;;;2.85;;
8993;SDS011;4532;50.886;4.700;2023-05-01T02:15:35;2.90;;;2.35;;
8993;SDS011;4532;50.886;4.700;2023-05-01T02:18:05;4.95;;;2.20;;
8993;SDS011;4532;50.886;4.700;2023-05-01T02:20:34;2.95;;;2.30;;
8993;SDS011;4532;50.886;4.700;2023-05-01T02:23:07;3.33;;;2.42;;
8993;SDS011;4532;50.886;4.700;2023-05-01T02:25:36;3.83;;;2.67;;
8993;SDS011;4532;50.886;4.700;2023-05-01T02:28:08;3.30;;;2.22;;
8993;SDS011;4532;50.886;4.700;2023-05-01T02:30:39;4.10;;;2.28;;
8993;SDS011;4532;50.886;4.700;2023-05-01T02:33:08;4.00;;;2.60;;
8993;SDS011;4532;50.886;4.700;2023-05-01T02:35:39;3.15;;;2.60;;
8993;SDS011;4532;50.886;4.700;2023-05-01T02:38:15;3.63;;;2.30;;
8993;SDS011;4532;50.886;4.700;2023-05-01T02:40:52;4.63;;;2.30;;
8993;SDS011;4532;50.886;4.700;2023-05-01T02:43:23;3.80;;;2.22;;
8993;SDS011;4532;50.886;4.700;2023-05-01T02:45:56;3.27;;;2.30;;
8993;SDS011;4532;50.886;4.700;2023-05-01T02:48:26;4.90;;;2.70;;
8993;SDS011;4532;50.886;4.700;2023-05-01T02:50:56;2.60;;;2.40;;
8993;SDS011;4532;50.886;4.700;2023-05-01T02:53:29;3.80;;;2.60;;
8993;SDS011;4532;50.886;4.700;2023-05-01T02:55:58;2.58;;;2.38;;
8993;SDS011;4532;50.886;4.700;2023-05-01T02:58:25;5.40;;;2.20;;
8993;SDS011;4532;50.886;4.700;2023-05-01T03:01:00;4.38;;;2.88;;
8993;SDS011;4532;50.886;4.700;2023-05-01T03:03:31;4.65;;;2.42;;
8993;SDS011;4532;50.886;4.700;2023-05-01T03:06:01;2.65;;;2.42;;
8993;SDS011;4532;50.886;4.700;2023-05-01T03:08:30;4.35;;;2.58;;
8993;SDS011;4532;50.886;4.700;2023-05-01T03:10:58;4.32;;;2.65;;
8993;SDS011;4532;50.886;4.700;2023-05-01T03:13:27;5.10;;;2.78;;
8993;SDS011;4532;50.886;4.700;2023-05-01T03:15:57;3.33;;;2.70;;
8993;SDS011;4532;50.886;4.700;2023-05-01T03:18:28;3.15;;;2.35;;
8993;SDS011;4532;50.886;4.700;2023-05-01T03:20:55;2.67;;;2.47;;
8993;SDS011;4532;50.886;4.700;2023-05-01T03:23:25;3.65;;;2.97;;
8993;SDS011;4532;50.886;4.700;2023-05-01T03:25:53;3.92;;;2.78;;
8993;SDS011;4532;50.886;4.700;2023-05-01T03:28:22;2.65;;;2.45;;
8993;SDS011;4532;50.886;4.700;2023-05-01T03:30:50;3.53;;;2.50;;
8993;SDS011;4532;50.886;4.700;2023-05-01T03:33:17;3.35;;;2.30;;
8993;SDS011;4532;50.886;4.700;2023-05-01T03:35:45;2.92;;;2.47;;
8993;SDS011;4532;50.886;4.700;2023-05-01T03:38:15;3.67;;;2.25;;
8993;SDS011;4532;50.886;4.700;2023-05-01T03:40:42;3.08;;;2.67;;
8993;SDS011;4532;50.886;4.700;2023-05-01T03:43:12;5.05;;;3.03;;
8993;SDS011;4532;50.886;4.700;2023-05-01T03:45:41;5.97;;;2.67;;
8993;SDS011;4532;50.886;4.700;2023-05-01T03:48:10;3.90;;;2.55;;
8993;SDS011;4532;50.886;4.700;2023-05-01T03:50:39;2.90;;;2.50;;
8993;SDS011;4532;50.886;4.700;2023-05-01T03:53:07;2.92;;;2.63;;
8993;SDS011;4532;50.886;4.700;2023-05-01T03:55:34;5.25;;;2.90;;
8993;SDS011;4532;50.886;4.700;2023-05-01T03:58:01;3.80;;;2.70;;
8993;SDS011;4532;50.886;4.700;2023-05-01T04:00:28;4.00;;;2.97;;
8993;SDS011;4532;50.886;4.700;2023-05-01T04:02:58;4.07;;;2.80;;
8993;SDS011;4532;50.886;4.700;2023-05-01T04:05:25;3.17;;;2.70;;
8993;SDS011;4532;50.886;4.700;2023-05-01T04:07:52;3.40;;;2.97;;
8993;SDS011;4532;50.886;4.700;2023-05-01T04:10:19;6.05;;;2.90;;
8993;SDS011;4532;50.886;4.700;2023-05-01T04:12:46;4.03;;;2.65;;
8993;SDS011;4532;50.886;4.700;2023-05-01T04:15:14;2.95;;;2.30;;
8993;SDS011;4532;50.886;4.700;2023-05-01T04:17:43;4.25;;;3.20;;
8993;SDS011;4532;50.886;4.700;2023-05-01T04:20:11;4.82;;;2.70;;
8993;SDS011;4532;50.886;4.700;2023-05-01T04:22:38;3.90;;;2.83;;
8993;SDS011;4532;50.886;4.700;2023-05-01T04:25:05;4.97;;;2.72;;
8993;SDS011;4532;50.886;4.700;2023-05-01T04:27:34;3.40;;;2.97;;
8993;SDS011;4532;50.886;4.700;2023-05-01T04:30:01;4.88;;;3.30;;
8993;SDS011;4532;50.886;4.700;2023-05-01T04:32:30;4.45;;;3.20;;
8993;SDS011;4532;50.886;4.700;2023-05-01T04:35:03;3.22;;;2.80;;
8993;SDS011;4532;50.886;4.700;2023-05-01T04:37:31;4.22;;;3.47;;
8993;SDS011;4532;50.886;4.700;2023-05-01T04:39:58;4.82;;;3.20;;
8993;SDS011;4532;50.886;4.700;2023-05-01T04:42:29;7.47;;;3.58;;
8993;SDS011;4532;50.886;4.700;2023-05-01T04:45:01;5.18;;;2.90;;
8993;SDS011;4532;50.886;4.700;2023-05-01T04:47:29;3.92;;;3.53;;
8993;SDS011;4532;50.886;4.700;2023-05-01T04:49:59;3.78;;;3.47;;
8993;SDS011;4532;50.886;4.700;2023-05-01T04:52:29;4.22;;;3.17;;
8993;SDS011;4532;50.886;4.700;2023-05-01T04:54:56;4.07;;;3.13;;
8993;SDS011;4532;50.886;4.700;2023-05-01T04:57:25;3.50;;;3.20;;
8993;SDS011;4532;50.886;4.700;2023-05-01T04:59:55;3.92;;;3.35;;
8993;SDS011;4532;50.886;4.700;2023-05-01T05:02:25;3.53;;;3.20;;
8993;SDS011;4532;50.886;4.700;2023-05-01T05:04:55;3.72;;;2.90;;
8993;SDS011;4532;50.886;4.700;2023-05-01T05:07:24;3.72;;;2.85;;
8993;SDS011;4532;50.886;4.700;2023-05-01T05:09:58;3.25;;;2.95;;
8993;SDS011;4532;50.886;4.700;2023-05-01T05:12:25;3.30;;;3.00;;
8993;SDS011;4532;50.886;4.700;2023-05-01T05:14:52;3.65;;;2.70;;
8993;SDS011;4532;50.886;4.700;2023-05-01T05:17:22;3.17;;;2.88;;
8993;SDS011;4532;50.886;4.700;2023-05-01T05:19:49;4.50;;;3.20;;
8993;SDS011;4532;50.886;4.700;2023-05-01T05:22:19;3.35;;;2.70;;
8993;SDS011;4532;50.886;4.700;2023-05-01T05:24:53;3.50;;;3.17;;
8993;SDS011;4532;50.886;4.700;2023-05-01T05:27:31;3.67;;;2.90;;
8993;SDS011;4532;50.886;4.700;2023-05-01T05:30:04;3.53;;;3.15;;
8993;SDS011;4532;50.886;4.700;2023-05-01T05:32:34;4.03;;;3.13;;
8993;SDS011;4532;50.886;4.700;2023-05-01T05:35:06;4.00;;;3.60;;
8993;SDS011;4532;50.886;4.700;2023-05-01T05:37:36;3.83;;;3.22;;
8993;SDS011;4532;50.886;4.700;2023-05-01T05:40:06;3.72;;;3.20;;
8993;SDS011;4532;50.886;4.700;2023-05-01T05:42:34;4.72;;;3.63;;
8993;SDS011;4532;50.886;4.700;2023-05-01T05:45:01;6.80;;;3.95;;
8993;SDS011;4532;50.886;4.700;2023-05-01T05:47:34;4.53;;;3.60;;
8993;SDS011;4532;50.886;4.700;2023-05-01T05:50:03;4.23;;;3.53;;
8993;SDS011;4532;50.886;4.700;2023-05-01T05:52:32;5.97;;;3.83;;
8993;SDS011;4532;50.886;4.700;2023-05-01T05:54:59;4.60;;;3.88;;
8993;SDS011;4532;50.886;4.700;2023-05-01T05:57:28;4.93;;;3.75;;
8993;SDS011;4532;50.886;4.700;2023-05-01T05:59:55;4.93;;;3.90;;
8993;SDS011;4532;50.886;4.700;2023-05-01T06:02:23;4.18;;;3.65;;
8993;SDS011;4532;50.886;4.700;2023-05-01T06:04:51;5.00;;;3.72;;
8993;SDS011;4532;50.886;4.700;2023-05-01T06:07:20;4.10;;;3.80;;
8993;SDS011;4532;50.886;4.700;2023-05-01T06:09:48;4.57;;;4.18;;
8993;SDS011;4532;50.886;4.700;2023-05-01T06:12:15;5.90;;;4.00;;
8993;SDS011;4532;50.886;4.700;2023-05-01T06:14:46;4.80;;;3.83;;
8993;SDS011;4532;50.886;4.700;2023-05-01T06:17:15;5.50;;;3.85;;
8993;SDS011;4532;50.886;4.700;2023-05-01T06:19:42;5.18;;;4.00;;
8993;SDS011;4532;50.886;4.700;2023-05-01T06:22:12;5.03;;;4.13;;
8993;SDS011;4532;50.886;4.700;2023-05-01T06:24:39;3.95;;;3.60;;
8993;SDS011;4532;50.886;4.700;2023-05-01T06:27:09;4.75;;;3.72;;
8993;SDS011;4532;50.886;4.700;2023-05-01T06:29:39;4.32;;;3.72;;
8993;SDS011;4532;50.886;4.700;2023-05-01T06:32:11;5.38;;;3.92;;
8993;SDS011;4532;50.886;4.700;2023-05-01T06:34:40;4.97;;;4.37;;
8993;SDS011;4532;50.886;4.700;2023-05-01T06:37:09;4.32;;;3.92;;
8993;SDS011;4532;50.886;4.700;2023-05-01T06:39:41;4.13;;;3.47;;
8993;SDS011;4532;50.886;4.700;2023-05-01T06:42:15;4.72;;;4.07;;
8993;SDS011;4532;50.886;4.700;2023-05-01T06:44:42;5.70;;;3.50;;
8993;SDS011;4532;50.886;4.700;2023-05-01T06:47:10;4.20;;;3.80;;
8993;SDS011;4532;50.886;4.700;2023-05-01T06:49:37;5.38;;;3.92;;
8993;SDS011;4532;50.886;4.700;2023-05-01T06:52:11;4.15;;;3.80;;
8993;SDS011;4532;50.886;4.700;2023-05-01T06:54:38;4.67;;;4.03;;
8993;SDS011;4532;50.886;4.700;2023-05-01T06:57:10;4.22;;;3.80;;
8993;SDS011;4532;50.886;4.700;2023-05-01T06:59:39;4.15;;;3.72;;
8993;SDS011;4532;50.886;4.700;2023-05-01T07:02:09;3.83;;;3.42;;
8993;SDS011;4532;50.886;4.700;2023-05-01T07:04:38;4.93;;;3.75;;
8993;SDS011;4532;50.886;4.700;2023-05-01T07:07:08;5.47;;;4.05;;
8993;SDS011;4532;50.886;4.700;2023-05-01T07:09:40;5.35;;;3.55;;
8993;SDS011;4532;50.886;4.700;2023-05-01T07:12:07;3.58;;;3.28;;
8993;SDS011;4532;50.886;4.700;2023-05-01T07:14:37;4.50;;;4.07;;
8993;SDS011;4532;50.886;4.700;2023-05-01T07:17:09;5.28;;;4.00;;
8993;SDS011;4532;50.886;4.700;2023-05-01T07:19:36;8.13;;;4.00;;
8993;SDS011;4532;50.886;4.700;2023-05-01T07:22:08;4.40;;;3.95;;
8993;SDS011;4532;50.886;4.700;2023-05-01T07:24:35;4.20;;;3.80;;
8993;SDS011;4532;50.886;4.700;2023-05-01T07:27:05;7.10;;;4.80;;
8993;SDS011;4532;50.886;4.700;2023-05-01T07:29:32;5.38;;;4.88;;
8993;SDS011;4532;50.886;4.700;2023-05-01T07:32:05;5.25;;;4.75;;
8993;SDS011;4532;50.886;4.700;2023-05-01T07:34:33;5.53;;;4.90;;
8993;SDS011;4532;50.886;4.700;2023-05-01T07:37:03;7.72;;;6.80;;
8993;SDS011;4532;50.886;4.700;2023-05-01T07:39:32;11.18;;;9.90;;
8993;SDS011;4532;50.886;4.700;2023-05-01T07:42:02;8.13;;;7.32;;
8993;SDS011;4532;50.886;4.700;2023-05-01T07:44:33;10.05;;;9.05;;
8993;SDS011;4532;50.886;4.700;2023-05-01T07:47:01;11.32;;;10.13;;
8993;SDS011;4532;50.886;4.700;2023-05-01T07:49:33;10.68;;;9.30;;
8993;SDS011;4532;50.886;4.700;2023-05-01T07:52:03;10.23;;;9.23;;
8993;SDS011;4532;50.886;4.700;2023-05-01T07:54:35;11.93;;;10.65;;
8993;SDS011;4532;50.886;4.700;2023-05-01T07:57:04;12.80;;;11.45;;
8993;SDS011;4532;50.886;4.700;2023-05-01T07:59:32;11.95;;;10.75;;
8993;SDS011;4532;50.886;4.700;2023-05-01T08:02:02;14.65;;;12.80;;
8993;SDS011;4532;50.886;4.700;2023-05-01T08:04:29;12.52;;;11.32;;
8993;SDS011;4532;50.886;4.700;2023-05-01T08:06:57;13.98;;;11.88;;
8993;SDS011;4532;50.886;4.700;2023-05-01T08:09:26;15.05;;;13.18;;
8993;SDS011;4532;50.886;4.700;2023-05-01T08:11:53;13.07;;;11.55;;
8993;SDS011;4532;50.886;4.700;2023-05-01T08:14:25;13.15;;;11.77;;
8993;SDS011;4532;50.886;4.700;2023-05-01T08:16:57;14.20;;;12.70;;
8993;SDS011;4532;50.886;4.700;2023-05-01T08:19:27;15.25;;;12.65;;
8993;SDS011;4532;50.886;4.700;2023-05-01T08:21:54;13.65;;;12.25;;
8993;SDS011;4532;50.886;4.700;2023-05-01T08:24:21;15.20;;;13.52;;
8993;SDS011;4532;50.886;4.700;2023-05-01T08:26:49;15.68;;;14.07;;
8993;SDS011;4532;50.886;4.700;2023-05-01T08:29:20;15.95;;;13.32;;
8993;SDS011;4532;50.886;4.700;2023-05-01T08:31:50;15.38;;;13.05;;
8993;SDS011;4532;50.886;4.700;2023-05-01T08:34:17;14.68;;;13.10;;
8993;SDS011;4532;50.886;4.700;2023-05-01T08:36:44;16.58;;;14.23;;
8993;SDS011;4532;50.886;4.700;2023-05-01T08:39:16;15.13;;;13.52;;
8993;SDS011;4532;50.886;4.700;2023-05-01T08:41:46;16.15;;;14.52;;
8993;SDS011;4532;50.886;4.700;2023-05-01T08:44:16;15.95;;;12.50;;
8993;SDS011;4532;50.886;4.700;2023-05-01T08:46:45;15.35;;;13.75;;
8993;SDS011;4532;50.886;4.700;2023-05-01T08:49:26;15.88;;;14.27;;
8993;SDS011;4532;50.886;4.700;2023-05-01T08:51:57;18.90;;;16.63;;
8993;SDS011;4532;50.886;4.700;2023-05-01T08:54:28;19.67;;;17.67;;
8993;SDS011;4532;50.886;4.700;2023-05-01T08:57:00;20.23;;;17.98;;
8993;SDS011;4532;50.886;4.700;2023-05-01T08:59:35;21.35;;;18.60;;
8993;SDS011;4532;50.886;4.700;2023-05-01T09:02:07;21.00;;;18.90;;
8993;SDS011;4532;50.886;4.700;2023-05-01T09:04:38;20.17;;;17.98;;
8993;SDS011;4532;50.886;4.700;2023-05-01T09:07:12;19.90;;;17.73;;
8993;SDS011;4532;50.886;4.700;2023-05-01T09:09:40;21.40;;;19.15;;
8993;SDS011;4532;50.886;4.700;2023-05-01T09:12:21;22.13;;;19.25;;
8993;SDS011;4532;50.886;4.700;2023-05-01T09:14:54;21.40;;;19.02;;
8993;SDS011;4532;50.886;4.700;2023-05-01T09:17:24;21.75;;;19.55;;
8993;SDS011;4532;50.886;4.700;2023-05-01T09:19:56;22.33;;;20.02;;
8993;SDS011;4532;50.886;4.700;2023-05-01T09:22:24;23.02;;;20.52;;
8993;SDS011;4532;50.886;4.700;2023-05-01T09:24:52;25.85;;;22.20;;
8993;SDS011;4532;50.886;4.700;2023-05-01T09:27:19;24.65;;;21.95;;
8993;SDS011;4532;50.886;4.700;2023-05-01T09:29:46;27.08;;;24.13;;
8993;SDS011;4532;50.886;4.700;2023-05-01T09:34:51;25.70;;;22.60;;
8993;SDS011;4532;50.886;4.700;2023-05-01T09:42:49;31.85;;;25.95;;
8993;SDS011;4532;50.886;4.700;2023-05-01T09:45:21;35.05;;;27.88;;
8993;SDS011;4532;50.886;4.700;2023-05-01T09:47:52;31.60;;;27.58;;
8993;SDS011;4532;50.886;4.700;2023-05-01T09:50:39;33.58;;;27.60;;
8993;SDS011;4532;50.886;4.700;2023-05-01T09:53:10;33.20;;;27.73;;
8993;SDS011;4532;50.886;4.700;2023-05-01T09:55:38;32.97;;;26.73;;
8993;SDS011;4532;50.886;4.700;2023-05-01T09:58:05;30.90;;;26.77;;
8993;SDS011;4532;50.886;4.700;2023-05-01T10:00:38;33.15;;;28.25;;
8993;SDS011;4532;50.886;4.700;2023-05-01T10:03:15;32.38;;;26.27;;
8993;SDS011;4532;50.886;4.700;2023-05-01T10:05:44;33.10;;;26.27;;
8993;SDS011;4532;50.886;4.700;2023-05-01T10:08:12;32.08;;;26.45;;
8993;SDS011;4532;50.886;4.700;2023-05-01T10:10:44;32.25;;;27.00;;
8993;SDS011;4532;50.886;4.700;2023-05-01T10:13:28;34.15;;;28.23;;
8993;SDS011;4532;50.886;4.700;2023-05-01T10:15:56;36.72;;;28.25;;
8993;SDS011;4532;50.886;4.700;2023-05-01T10:18:23;34.08;;;29.20;;
8993;SDS011;4532;50.886;4.700;2023-05-01T10:20:51;33.40;;;27.77;;
8993;SDS011;4532;50.886;4.700;2023-05-01T10:23:20;41.75;;;33.25;;
8993;SDS011;4532;50.886;4.700;2023-05-01T10:25:55;42.83;;;33.90;;
8993;SDS011;4532;50.886;4.700;2023-05-01T10:28:26;42.17;;;33.33;;
8993;SDS011;4532;50.886;4.700;2023-05-01T10:30:59;38.70;;;32.00;;
8993;SDS011;4532;50.886;4.700;2023-05-01T10:33:27;36.35;;;29.08;;
8993;SDS011;4532;50.886;4.700;2023-05-01T10:35:57;38.85;;;29.98;;
8993;SDS011;4532;50.886;4.700;2023-05-01T10:38:31;43.20;;;34.15;;
8993;SDS011;4532;50.886;4.700;2023-05-01T10:41:04;37.22;;;31.27;;
8993;SDS011;4532;50.886;4.700;2023-05-01T10:43:34;40.97;;;32.22;;
8993;SDS011;4532;50.886;4.700;2023-05-01T10:51:13;41.70;;;32.97;;
8993;SDS011;4532;50.886;4.700;2023-05-01T10:53:44;42.58;;;32.83;;
8993;SDS011;4532;50.886;4.700;2023-05-01T11:01:28;41.20;;;30.35;;
8993;SDS011;4532;50.886;4.700;2023-05-01T11:06:36;40.00;;;32.38;;
8993;SDS011;4532;50.886;4.700;2023-05-01T11:15:16;39.25;;;31.05;;
8993;SDS011;4532;50.886;4.700;2023-05-01T11:17:58;37.55;;;29.02;;
8993;SDS011;4532;50.886;4.700;2023-05-01T11:23:02;36.00;;;28.83;;
8993;SDS011;4532;50.886;4.700;2023-05-01T11:25:32;37.80;;;29.10;;
8993;SDS011;4532;50.886;4.700;2023-05-01T11:28:02;36.53;;;29.10;;
8993;SDS011;4532;50.886;4.700;2023-05-01T11:30:40;33.25;;;26.40;;
8993;SDS011;4532;50.886;4.700;2023-05-01T11:33:12;40.80;;;29.95;;
8993;SDS011;4532;50.886;4.700;2023-05-01T11:35:46;31.80;;;26.55;;
8993;SDS011;4532;50.886;4.700;2023-05-01T11:38:22;32.67;;;25.30;;
8993;SDS011;4532;50.886;4.700;2023-05-01T11:40:56;28.85;;;23.15;;
8993;SDS011;4532;50.886;4.700;2023-05-01T11:43:24;31.20;;;24.45;;
8993;SDS011;4532;50.886;4.700;2023-05-01T11:45:52;24.65;;;20.73;;
8993;SDS011;4532;50.886;4.700;2023-05-01T11:48:25;26.27;;;22.23;;
8993;SDS011;4532;50.886;4.700;2023-05-01T11:50:55;25.65;;;21.23;;
8993;SDS011;4532;50.886;4.700;2023-05-01T11:53:22;26.30;;;23.40;;
8993;SDS011;4532;50.886;4.700;2023-05-01T11:55:54;23.65;;;20.67;;
8993;SDS011;4532;50.886;4.700;2023-05-01T11:58:29;25.55;;;22.83;;
8993;SDS011;4532;50.886;4.700;2023-05-01T12:01:00;25.27;;;22.25;;
8993;SDS011;4532;50.886;4.700;2023-05-01T12:03:39;21.45;;;18.33;;
8993;SDS011;4532;50.886;4.700;2023-05-01T12:06:13;23.17;;;20.05;;
8993;SDS011;4532;50.886;4.700;2023-05-01T12:08:44;20.45;;;18.30;;
8993;SDS011;4532;50.886;4.700;2023-05-01T12:11:16;23.50;;;20.88;;
8993;SDS011;4532;50.886;4.700;2023-05-01T12:13:46;22.45;;;20.25;;
8993;SDS011;4532;50.886;4.700;2023-05-01T12:16:15;19.92;;;17.85;;
8993;SDS011;4532;50.886;4.700;2023-05-01T12:18:45;20.08;;;17.90;;
8993;SDS011;4532;50.886;4.700;2023-05-01T12:21:14;22.58;;;20.17;;
8993;SDS011;4532;50.886;4.700;2023-05-01T12:23:46;20.85;;;18.02;;
8993;SDS011;4532;50.886;4.700;2023-05-01T12:26:15;22.40;;;19.92;;
8993;SDS011;4532;50.886;4.700;2023-05-01T12:28:59;24.08;;;21.48;;
8993;SDS011;4532;50.886;4.700;2023-05-01T12:31:27;25.38;;;21.75;;
8993;SDS011;4532;50.886;4.700;2023-05-01T12:34:01;27.48;;;22.77;;
8993;SDS011;4532;50.886;4.700;2023-05-01T12:36:33;24.08;;;21.48;;
8993;SDS011;4532;50.886;4.700;2023-05-01T12:44:20;25.55;;;22.75;;
8993;SDS011;4532;50.886;4.700;2023-05-01T12:47:10;25.60;;;22.45;;
8993;SDS011;4532;50.886;4.700;2023-05-01T12:49:40;22.90;;;20.52;;
8993;SDS011;4532;50.886;4.700;2023-05-01T12:52:08;22.63;;;20.30;;
8993;SDS011;4532;50.886;4.700;2023-05-01T12:54:36;24.67;;;20.90;;
8993;SDS011;4532;50.886;4.700;2023-05-01T12:57:08;23.98;;;21.42;;
8993;SDS011;4532;50.886;4.700;2023-05-01T12:59:41;31.67;;;24.45;;
8993;SDS011;4532;50.886;4.700;2023-05-01T13:02:12;24.33;;;20.33;;
8993;SDS011;4532;50.886;4.700;2023-05-01T13:04:44;23.77;;;20.23;;
8993;SDS011;4532;50.886;4.700;2023-05-01T13:07:16;28.67;;;25.45;;
8993;SDS011;4532;50.886;4.700;2023-05-01T13:12:23;24.02;;;21.02;;
8993;SDS011;4532;50.886;4.700;2023-05-01T13:14:52;20.13;;;18.10;;
8993;SDS011;4532;50.886;4.700;2023-05-01T13:17:26;17.13;;;15.38;;
8993;SDS011;4532;50.886;4.700;2023-05-01T13:19:57;14.05;;;12.75;;
8993;SDS011;4532;50.886;4.700;2023-05-01T13:22:32;15.35;;;13.75;;
8993;SDS011;4532;50.886;4.700;2023-05-01T13:25:21;15.55;;;14.02;;
8993;SDS011;4532;50.886;4.700;2023-05-01T13:27:48;16.25;;;14.55;;
8993;SDS011;4532;50.886;4.700;2023-05-01T13:30:29;16.15;;;14.48;;
8993;SDS011;4532;50.886;4.700;2023-05-01T13:33:04;14.45;;;12.57;;
8993;SDS011;4532;50.886;4.700;2023-05-01T13:35:33;16.13;;;14.43;;
8993;SDS011;4532;50.886;4.700;2023-05-01T13:38:04;14.70;;;13.27;;
8993;SDS011;4532;50.886;4.700;2023-05-01T13:40:39;15.57;;;14.07;;
8993;SDS011;4532;50.886;4.700;2023-05-01T13:43:12;15.85;;;14.35;;
8993;SDS011;4532;50.886;4.700;2023-05-01T13:45:44;15.57;;;14.00;;
8993;SDS011;4532;50.886;4.700;2023-05-01T13:48:15;15.20;;;13.60;;
8993;SDS011;4532;50.886;4.700;2023-05-01T13:50:46;14.05;;;12.57;;
8993;SDS011;4532;50.886;4.700;2023-05-01T13:53:13;15.70;;;14.20;;
8993;SDS011;4532;50.886;4.700;2023-05-01T13:55:41;17.73;;;15.82;;
8993;SDS011;4532;50.886;4.700;2023-05-01T13:58:11;16.55;;;14.77;;
8993;SDS011;4532;50.886;4.700;2023-05-01T14:00:38;16.35;;;14.80;;
8993;SDS011;4532;50.886;4.700;2023-05-01T14:03:12;16.52;;;14.60;;
8993;SDS011;4532;50.886;4.700;2023-05-01T14:05:41;16.98;;;15.38;;
8993;SDS011;4532;50.886;4.700;2023-05-01T14:08:11;18.35;;;15.85;;
8993;SDS011;4532;50.886;4.700;2023-05-01T14:10:40;14.95;;;13.38;;
8993;SDS011;4532;50.886;4.700;2023-05-01T14:13:09;14.35;;;12.95;;
8993;SDS011;4532;50.886;4.700;2023-05-01T14:15:37;15.45;;;13.85;;
8993;SDS011;4532;50.886;4.700;2023-05-01T14:18:13;16.25;;;14.65;;
8993;SDS011;4532;50.886;4.700;2023-05-01T14:20:48;16.83;;;15.05;;
8993;SDS011;4532;50.886;4.700;2023-05-01T14:23:17;17.23;;;14.45;;
8993;SDS011;4532;50.886;4.700;2023-05-01T14:25:50;16.30;;;14.20;;
8993;SDS011;4532;50.886;4.700;2023-05-01T14:28:19;16.10;;;13.10;;
8993;SDS011;4532;50.886;4.700;2023-05-01T14:30:49;17.17;;;15.38;;
8993;SDS011;4532;50.886;4.700;2023-05-01T14:33:18;15.13;;;13.48;;
8993;SDS011;4532;50.886;4.700;2023-05-01T14:35:49;15.75;;;14.10;;
8993;SDS011;4532;50.886;4.700;2023-05-01T14:38:18;17.00;;;14.02;;
8993;SDS011;4532;50.886;4.700;2023-05-01T14:40:49;15.75;;;14.00;;
8993;SDS011;4532;50.886;4.700;2023-05-01T14:43:17;15.93;;;13.82;;
8993;SDS011;4532;50.886;4.700;2023-05-01T14:45:49;14.90;;;13.32;;
8993;SDS011;4532;50.886;4.700;2023-05-01T14:48:25;17.52;;;14.98;;
8993;SDS011;4532;50.886;4.700;2023-05-01T14:51:00;15.90;;;14.00;;
8993;SDS011;4532;50.886;4.700;2023-05-01T14:53:30;15.55;;;13.93;;
8993;SDS011;4532;50.886;4.700;2023-05-01T14:56:00;17.70;;;15.55;;
8993;SDS011;4532;50.886;4.700;2023-05-01T14:58:27;15.55;;;12.80;;
8993;SDS011;4532;50.886;4.700;2023-05-01T15:00:55;16.67;;;13.32;;
8993;SDS011;4532;50.886;4.700;2023-05-01T15:03:25;17.90;;;13.90;;
8993;SDS011;4532;50.886;4.700;2023-05-01T15:05:53;13.35;;;11.82;;
8993;SDS011;4532;50.886;4.700;2023-05-01T15:08:25;14.60;;;13.10;;
8993;SDS011;4532;50.886;4.700;2023-05-01T15:11:00;13.88;;;12.38;;
8993;SDS011;4532;50.886;4.700;2023-05-01T15:13:30;12.35;;;10.88;;
8993;SDS011;4532;50.886;4.700;2023-05-01T15:15:59;14.30;;;12.70;;
8993;SDS011;4532;50.886;4.700;2023-05-01T15:18:33;13.70;;;11.77;;
8993;SDS011;4532;50.886;4.700;2023-05-01T15:21:05;10.13;;;8.77;;
8993;SDS011;4532;50.886;4.700;2023-05-01T15:23:32;13.80;;;11.07;;
8993;SDS011;4532;50.886;4.700;2023-05-01T15:25:59;12.60;;;10.23;;
8993;SDS011;4532;50.886;4.700;2023-05-01T15:28:29;12.32;;;10.35;;
8993;SDS011;4532;50.886;4.700;2023-05-01T15:30:59;10.85;;;9.73;;
8993;SDS011;4532;50.886;4.700;2023-05-01T15:33:28;11.77;;;10.35;;
8993;SDS011;4532;50.886;4.700;2023-05-01T15:35:58;10.13;;;8.13;;
8993;SDS011;4532;50.886;4.700;2023-05-01T15:38:31;9.57;;;7.75;;
8993;SDS011;4532;50.886;4.700;2023-05-01T15:40:58;8.02;;;7.22;;
8993;SDS011;4532;50.886;4.700;2023-05-01T15:43:32;9.93;;;8.73;;
8993;SDS011;4532;50.886;4.700;2023-05-01T15:45:59;12.30;;;10.00;;
8993;SDS011;4532;50.886;4.700;2023-05-01T15:48:29;10.45;;;9.35;;
8993;SDS011;4532;50.886;4.700;2023-05-01T15:50:56;11.65;;;9.57;;
8993;SDS011;4532;50.886;4.700;2023-05-01T15:53:26;11.80;;;9.90;;
8993;SDS011;4532;50.886;4.700;2023-05-01T15:55:56;13.52;;;11.48;;
8993;SDS011;4532;50.886;4.700;2023-05-01T15:58:26;14.27;;;12.48;;
8993;SDS011;4532;50.886;4.700;2023-05-01T16:00:53;15.13;;;11.48;;
8993;SDS011;4532;50.886;4.700;2023-05-01T16:03:25;14.07;;;12.50;;
8993;SDS011;4532;50.886;4.700;2023-05-01T16:05:55;11.68;;;10.43;;
8993;SDS011;4532;50.886;4.700;2023-05-01T16:08:23;12.38;;;9.93;;
8993;SDS011;4532;50.886;4.700;2023-05-01T16:10:52;12.95;;;10.57;;
8993;SDS011;4532;50.886;4.700;2023-05-01T16:13:20;14.00;;;11.05;;
8993;SDS011;4532;50.886;4.700;2023-05-01T16:15:47;13.20;;;11.80;;